Home   Weather   USA   Solvang   Past weeks
Flag for USA

Past Weather in Solvang, California, USA — Yesterday and Last 2 Weeks

Currently: 54 °F. Passing clouds. (Weather station: Santa Ynez Airport, USA). See more current weather

Past Weather in Solvang — Graph

°F

Solvang Temperature Yesterday

Maximum temperature yesterday: 79 °F (at 1:15 pm)
Minimum temperature yesterday: 50 °F (at 6:35 am)
Average temperature yesterday: 61 °F

High & Low Weather Summary for the Past Weeks

  Temperature Humidity Pressure
High 79 °F (May 7, 1:15 pm) 100% (Apr 24, 1:35 am) 30.09 "Hg (Apr 24, 1:35 am)
Low 37 °F (Apr 28, 6:15 am) 27% (Apr 28, 12:55 pm) 29.84 "Hg (May 2, 5:15 pm)
Average 57 °F 79% 29.98 "Hg
* Reported Apr 23 8:15 pm — May 8 8:35 pm, Solvang. Weather by CustomWeather, © 2026

Note: Actual official high and low records may vary slightly from our data, if they occured in-between our weather recording intervals... More about our weather records

Solvang Weather History for the Previous 24 Hours

Scroll right to see more
  Conditions Comfort    
Time   Temp Weather Wind   Humidity Barometer Visibility
8:35 pm
Fri, May 8
54 °F Passing clouds. 7 mph 94% 29.97 "Hg 9 mi
8:15 pm 55 °F Passing clouds. 6 mph 94% 29.97 "Hg 9 mi
7:55 pm 55 °F Clear. 9 mph 94% 29.96 "Hg 9 mi
7:35 pm 59 °F Sunny. 6 mph 82% 29.95 "Hg 10 mi
6:55 pm 63 °F Sunny. 13 mph 73% 29.94 "Hg 10 mi
6:15 pm 64 °F Sunny. 12 mph 68% 29.94 "Hg 10 mi
5:35 pm 68 °F Sunny. 12 mph 60% 29.94 "Hg 10 mi
5:15 pm 68 °F Sunny. 12 mph 60% 29.94 "Hg 10 mi
4:55 pm 68 °F Sunny. 14 mph 60% 29.95 "Hg 10 mi
4:35 pm 68 °F Sunny. 14 mph 60% 29.95 "Hg 10 mi
3:55 pm 70 °F Sunny. 16 mph 57% 29.96 "Hg 10 mi
3:15 pm 72 °F Sunny. 13 mph 53% 29.97 "Hg 10 mi
2:55 pm 73 °F Sunny. 17 mph 50% 29.97 "Hg 10 mi
2:35 pm 73 °F Sunny. 14 mph 50% 29.98 "Hg 10 mi
2:15 pm 73 °F Sunny. 12 mph 53% 29.98 "Hg 10 mi
1:55 pm 75 °F Sunny. 10 mph 50% 29.99 "Hg 10 mi
1:35 pm 73 °F Sunny. 12 mph 57% 29.99 "Hg 10 mi
12:55 pm 70 °F Sunny. 7 mph 64% 30.01 "Hg 10 mi
12:35 pm 70 °F Sunny. 6 mph 64% 30.02 "Hg 10 mi
12:15 pm 68 °F Sunny. 7 mph 69% 30.02 "Hg 10 mi
11:55 am 66 °F Sunny. 7 mph 68% 30.02 "Hg 9 mi
11:35 am 64 °F Sunny. 7 mph 73% 30.03 "Hg 9 mi
10:55 am 63 °F Partly sunny. 6 mph 77% 30.04 "Hg 10 mi
10:35 am 61 °F Overcast. 5 mph 77% 30.04 "Hg 10 mi
10:15 am 57 °F Overcast. 5 mph 88% 30.04 "Hg 10 mi
9:55 am 57 °F Low clouds. No wind 88% 30.04 "Hg 10 mi
9:35 am 54 °F Low clouds. No wind 100% 30.05 "Hg 10 mi
8:55 am 54 °F Fog. No wind 100% 30.05 "Hg 6 mi
8:35 am 52 °F Fog. No wind 100% 30.05 "Hg 5 mi
8:15 am 52 °F Fog. No wind 100% 30.05 "Hg 3 mi
7:55 am 52 °F Fog. 5 mph 100% 30.05 "Hg 3 mi
7:35 am 52 °F Fog. No wind 100% 30.05 "Hg 2 mi
6:55 am 52 °F Fog. No wind 100% 30.05 "Hg 2 mi
6:15 am 52 °F Fog. No wind 100% 30.04 "Hg 2 mi
5:35 am 52 °F Fog. No wind 100% 30.03 "Hg 2 mi
5:15 am 52 °F Fog. No wind 100% 30.03 "Hg 2 mi
4:55 am 52 °F Fog. No wind 100% 30.03 "Hg 3 mi
4:35 am 52 °F Fog. No wind 100% 30.03 "Hg 3 mi
3:55 am 52 °F Fog. No wind 100% 30.03 "Hg 2 mi
3:35 am 52 °F Fog. No wind 100% 30.03 "Hg 2 mi
3:15 am 52 °F Fog. No wind 100% 30.03 "Hg 1 mi
2:55 am 52 °F Fog. 3 mph 100% 30.03 "Hg 2 mi
2:35 am 52 °F Fog. No wind 100% 30.03 "Hg 2 mi
1:55 am 52 °F Fog. No wind 100% 30.03 "Hg 1 mi
1:35 am 52 °F Fog. No wind 100% 30.03 "Hg 1 mi
1:15 am 52 °F Fog. 3 mph 100% 30.03 "Hg 0 mi
12:35 am 50 °F Fog. No wind 100% 30.03 "Hg 6 mi
12:15 am 52 °F Passing clouds. No wind 100% 30.03 "Hg 7 mi
11:55 pm
Thu, May 7
52 °F Passing clouds. No wind 100% 30.03 "Hg 7 mi
11:35 pm 52 °F Partly cloudy. No wind 100% 30.03 "Hg 7 mi
10:55 pm 54 °F Mostly cloudy. No wind 100% 30.03 "Hg 8 mi
10:35 pm 54 °F Mostly cloudy. No wind 100% 30.03 "Hg 9 mi
9:55 pm 54 °F Passing clouds. 3 mph 100% 30.03 "Hg 10 mi
9:35 pm 54 °F Passing clouds. No wind 100% 30.03 "Hg 10 mi
Weather by CustomWeather, © 2026

See weather overview